createdAt,value
2018-11-21T00:01:13.332Z,11.78
2018-11-21T00:03:40.399Z,11.73
2018-11-21T00:06:07.468Z,12.20
2018-11-21T00:08:34.600Z,11.43
2018-11-21T00:11:01.665Z,12.50
2018-11-21T00:13:28.713Z,9.00
2018-11-21T00:15:55.739Z,10.10
2018-11-21T00:18:22.789Z,10.53
2018-11-21T00:20:49.849Z,11.05
2018-11-21T00:23:16.881Z,10.70
2018-11-21T00:25:43.952Z,10.60
2018-11-21T00:28:11.037Z,9.78
2018-11-21T00:30:38.100Z,10.63
2018-11-21T00:33:05.172Z,10.00
2018-11-21T00:35:32.228Z,10.00
2018-11-21T00:37:59.438Z,11.00
2018-11-21T00:40:26.497Z,9.23
2018-11-21T00:42:53.590Z,11.57
2018-11-21T00:45:20.667Z,10.93
2018-11-21T00:47:47.764Z,9.38
2018-11-21T00:50:14.811Z,10.60
2018-11-21T00:52:41.937Z,10.82
2018-11-21T00:55:08.957Z,11.73
2018-11-21T00:57:36.076Z,10.45
2018-11-21T01:00:03.828Z,9.25
2018-11-21T01:02:30.905Z,9.80
2018-11-21T01:04:57.968Z,8.68
2018-11-21T01:07:25.121Z,9.68
2018-11-21T01:09:52.195Z,10.20
2018-11-21T01:12:19.283Z,9.45
2018-11-21T01:14:46.380Z,9.60
2018-11-21T01:17:13.533Z,9.58
2018-11-21T01:19:40.600Z,9.60
2018-11-21T01:22:07.641Z,11.00
2018-11-21T01:24:34.696Z,10.70
2018-11-21T01:27:01.747Z,12.03
2018-11-21T01:29:28.809Z,12.07
2018-11-21T01:31:55.861Z,10.40
2018-11-21T01:34:22.955Z,10.72
2018-11-21T01:36:50.021Z,11.60
2018-11-21T01:39:17.108Z,9.33
2018-11-21T01:41:44.152Z,10.43
2018-11-21T01:44:11.263Z,11.80
2018-11-21T01:46:38.342Z,11.03
2018-11-21T01:49:05.420Z,9.10
2018-11-21T01:51:32.775Z,10.90
2018-11-21T01:54:00.053Z,9.83
2018-11-21T01:56:27.211Z,9.80
2018-11-21T01:58:54.445Z,10.30
2018-11-21T02:01:21.525Z,10.25
2018-11-21T02:03:48.588Z,8.85
2018-11-21T02:06:15.645Z,8.90
2018-11-21T02:08:42.712Z,9.25
2018-11-21T02:11:09.786Z,9.88
2018-11-21T02:13:36.858Z,11.10
2018-11-21T02:16:04.639Z,10.38
2018-11-21T02:18:31.681Z,8.93
2018-11-21T02:20:58.743Z,10.28
2018-11-21T02:23:25.809Z,9.38
2018-11-21T02:25:52.912Z,11.53
2018-11-21T02:28:19.962Z,8.95
2018-11-21T02:30:48.437Z,9.13
2018-11-21T02:33:15.499Z,9.48
2018-11-21T02:35:42.574Z,11.50
2018-11-21T02:38:09.638Z,11.18
2018-11-21T02:40:36.707Z,11.50
2018-11-21T02:43:03.785Z,9.58
2018-11-21T02:45:30.893Z,11.05
2018-11-21T02:47:57.971Z,11.38
2018-11-21T02:50:25.026Z,11.18
2018-11-21T02:52:52.366Z,11.10
2018-11-21T02:55:19.444Z,11.88
2018-11-21T02:57:46.535Z,11.53
2018-11-21T03:00:16.066Z,10.65
2018-11-21T03:02:43.130Z,11.65
2018-11-21T03:05:10.205Z,10.88
2018-11-21T03:07:39.835Z,11.57
2018-11-21T03:10:06.891Z,10.98
2018-11-21T03:12:33.937Z,12.20
2018-11-21T03:15:01.032Z,10.55
2018-11-21T03:17:28.073Z,12.50
2018-11-21T03:19:55.121Z,12.70
2018-11-21T03:22:22.191Z,11.90
2018-11-21T03:24:49.284Z,11.00
2018-11-21T03:27:16.317Z,11.35
2018-11-21T03:29:43.370Z,11.90
2018-11-21T03:32:10.429Z,13.35
2018-11-21T03:34:37.509Z,11.78
2018-11-21T03:37:04.552Z,12.65
2018-11-21T03:39:31.604Z,12.82
2018-11-21T03:41:59.844Z,11.18
2018-11-21T03:44:26.895Z,12.28
2018-11-21T03:46:53.958Z,12.85
2018-11-21T03:49:21.026Z,10.30
2018-11-21T03:51:48.102Z,12.10
2018-11-21T03:54:15.156Z,13.40
2018-11-21T03:56:42.202Z,11.83
2018-11-21T03:59:09.736Z,13.10
2018-11-21T04:01:37.215Z,11.55
2018-11-21T04:04:05.029Z,12.15
2018-11-21T04:06:32.090Z,14.25
2018-11-21T04:08:59.185Z,12.63
2018-11-21T04:11:26.304Z,10.25
2018-11-21T04:13:53.414Z,12.43
2018-11-21T04:16:20.553Z,12.50
2018-11-21T04:18:51.877Z,13.75
2018-11-21T04:21:19.021Z,12.95
2018-11-21T04:23:46.116Z,11.30
2018-11-21T04:26:13.785Z,13.22
2018-11-21T04:28:40.871Z,12.25
2018-11-21T04:31:07.964Z,10.70
2018-11-21T04:33:35.044Z,11.83
2018-11-21T04:36:02.104Z,13.90
2018-11-21T04:38:29.142Z,12.18
2018-11-21T04:40:56.230Z,10.45
2018-11-21T04:43:23.302Z,9.98
2018-11-21T04:45:50.437Z,11.45
2018-11-21T04:48:17.513Z,8.45
2018-11-21T04:50:44.572Z,14.35
2018-11-21T04:53:11.629Z,11.25
2018-11-21T04:55:38.681Z,10.13
2018-11-21T04:58:05.766Z,11.18
2018-11-21T05:00:32.847Z,11.30
2018-11-21T05:03:01.120Z,11.40
2018-11-21T05:05:28.193Z,12.65
2018-11-21T05:07:55.247Z,11.70
2018-11-21T05:10:22.377Z,12.70
2018-11-21T05:12:49.435Z,10.43
2018-11-21T05:15:16.516Z,10.50
2018-11-21T05:17:43.592Z,11.73
2018-11-21T05:20:10.706Z,12.58
2018-11-21T05:22:38.153Z,10.90
2018-11-21T05:25:05.697Z,11.78
2018-11-21T05:27:32.773Z,10.50
2018-11-21T05:29:59.836Z,10.95
2018-11-21T05:32:26.885Z,12.93
2018-11-21T05:34:53.955Z,11.75
2018-11-21T05:37:21.052Z,10.98
2018-11-21T05:39:48.102Z,10.50
2018-11-21T05:42:15.248Z,10.88
2018-11-21T05:44:42.778Z,9.35
2018-11-21T05:47:09.834Z,11.65
2018-11-21T05:49:36.908Z,10.58
2018-11-21T05:52:04.398Z,10.23
2018-11-21T05:54:31.451Z,9.45
2018-11-21T05:56:58.514Z,10.28
2018-11-21T05:59:25.583Z,8.23
2018-11-21T06:01:52.651Z,8.65
2018-11-21T06:04:19.710Z,9.90
2018-11-21T06:06:46.773Z,8.95
2018-11-21T06:09:13.838Z,8.08
2018-11-21T06:11:41.765Z,8.85
2018-11-21T06:14:08.823Z,9.63
2018-11-21T06:16:36.159Z,10.25
2018-11-21T06:19:03.195Z,8.33
2018-11-21T06:21:30.371Z,8.88
2018-11-21T06:23:57.427Z,8.23
2018-11-21T06:26:24.528Z,7.65
2018-11-21T06:28:51.596Z,8.90
2018-11-21T06:31:18.647Z,9.08
2018-11-21T06:33:45.733Z,9.30
2018-11-21T06:36:12.792Z,9.03
2018-11-21T06:38:39.850Z,8.85
2018-11-21T06:41:06.908Z,8.85
2018-11-21T06:43:33.993Z,9.73
2018-11-21T06:46:01.047Z,8.10
2018-11-21T06:48:28.106Z,9.98
2018-11-21T06:50:55.152Z,9.68
2018-11-21T06:53:22.202Z,11.03
2018-11-21T06:55:49.299Z,9.23
2018-11-21T06:58:16.357Z,7.85
2018-11-21T07:00:43.421Z,7.92
2018-11-21T07:03:10.495Z,8.08
2018-11-21T07:05:37.576Z,8.90
2018-11-21T07:08:04.660Z,8.38
2018-11-21T07:10:31.732Z,9.03
2018-11-21T07:12:58.805Z,8.40
2018-11-21T07:15:25.871Z,8.85
2018-11-21T07:17:52.927Z,9.03
2018-11-21T07:20:19.955Z,7.53
2018-11-21T07:22:47.237Z,8.85
2018-11-21T07:25:19.290Z,7.80
2018-11-21T07:27:46.462Z,7.20
2018-11-21T07:30:14.587Z,7.90
2018-11-21T07:32:41.772Z,6.78
2018-11-21T07:35:09.129Z,7.35
2018-11-21T07:37:36.366Z,7.70
2018-11-21T07:40:05.526Z,6.97
2018-11-21T07:42:32.584Z,6.75
2018-11-21T07:44:59.673Z,7.65
2018-11-21T07:47:26.737Z,7.00
2018-11-21T07:49:53.771Z,7.55
2018-11-21T07:52:20.860Z,7.47
2018-11-21T07:54:49.201Z,6.92
2018-11-21T07:57:28.290Z,6.20
2018-11-21T08:01:02.424Z,5.35
2018-11-21T08:03:31.720Z,6.72
2018-11-21T08:06:04.517Z,6.05
2018-11-21T08:08:40.977Z,5.92
2018-11-21T08:11:26.531Z,5.28
2018-11-21T08:14:02.597Z,4.97
2018-11-21T08:16:48.096Z,5.80
2018-11-21T08:19:29.048Z,6.12
2018-11-21T08:22:14.435Z,5.80
2018-11-21T08:25:19.194Z,5.67
2018-11-21T08:28:08.772Z,6.30
2018-11-21T08:30:35.832Z,9.95
2018-11-21T08:33:02.956Z,11.83
2018-11-21T08:35:30.020Z,9.95
2018-11-21T08:37:57.109Z,10.40
2018-11-21T08:40:24.254Z,11.75
2018-11-21T08:42:51.313Z,11.57
2018-11-21T08:45:18.474Z,13.08
2018-11-21T08:47:45.547Z,11.53
2018-11-21T08:50:12.610Z,14.85
2018-11-21T08:52:39.657Z,19.37
2018-11-21T08:55:09.016Z,17.87
2018-11-21T08:57:34.477Z,18.62
2018-11-21T09:00:01.573Z,15.15
2018-11-21T09:02:28.660Z,17.35
2018-11-21T09:04:55.740Z,15.15
2018-11-21T09:07:22.835Z,14.20
2018-11-21T09:09:49.919Z,13.00
2018-11-21T09:12:16.997Z,11.35
2018-11-21T09:14:44.103Z,12.50
2018-11-21T09:17:11.260Z,11.30
2018-11-21T09:19:38.600Z,16.07
2018-11-21T09:22:09.109Z,11.85
2018-11-21T09:24:36.202Z,11.85
2018-11-21T09:27:03.697Z,13.25
2018-11-21T09:29:30.901Z,12.73
2018-11-21T09:31:58.088Z,12.58
2018-11-21T09:34:25.201Z,14.53
2018-11-21T09:36:52.880Z,12.40
2018-11-21T09:39:21.450Z,11.85
2018-11-21T09:41:48.989Z,11.12
2018-11-21T09:44:16.123Z,13.03
2018-11-21T09:46:46.190Z,13.13
2018-11-21T09:49:13.275Z,16.30
2018-11-21T09:51:40.437Z,16.17
2018-11-21T09:54:07.582Z,16.27
2018-11-21T09:56:34.893Z,15.72
2018-11-21T09:59:02.031Z,14.63
2018-11-21T10:02:06.181Z,14.78
2018-11-21T10:04:35.787Z,14.03
2018-11-21T10:07:02.895Z,13.28
2018-11-21T10:09:32.545Z,13.00
2018-11-21T10:11:59.610Z,21.85
2018-11-21T10:14:26.768Z,15.70
2018-11-21T10:16:53.885Z,16.17
2018-11-21T10:19:21.000Z,12.63
2018-11-21T10:21:48.085Z,14.68
2018-11-21T10:24:15.166Z,16.55
2018-11-21T10:26:42.781Z,18.80
2018-11-21T10:29:10.110Z,19.30
2018-11-21T10:31:38.822Z,13.68
2018-11-21T10:34:06.081Z,11.33
2018-11-21T10:36:33.381Z,10.23
2018-11-21T10:39:00.695Z,10.82
2018-11-21T10:41:28.362Z,11.10
2018-11-21T10:43:55.523Z,18.48
2018-11-21T10:46:22.803Z,13.80
2018-11-21T10:48:50.018Z,10.70
2018-11-21T10:51:17.152Z,11.05
2018-11-21T10:53:44.233Z,12.65
2018-11-21T10:56:11.350Z,11.68
2018-11-21T10:58:38.610Z,14.07
2018-11-21T11:01:43.498Z,15.13
2018-11-21T11:04:18.882Z,15.65
2018-11-21T11:07:08.348Z,21.00
2018-11-21T11:09:48.801Z,16.70
2018-11-21T11:12:35.484Z,14.80
2018-11-21T11:15:20.628Z,16.15
2018-11-21T11:18:09.976Z,17.07
2018-11-21T11:20:50.507Z,17.67
2018-11-21T11:23:52.254Z,18.57
2018-11-21T11:26:42.719Z,17.40
2018-11-21T11:29:28.080Z,15.35
2018-11-21T11:32:17.403Z,17.27
2018-11-21T11:35:04.055Z,18.57
2018-11-21T11:37:45.490Z,16.25
2018-11-21T11:40:50.189Z,16.23
2018-11-21T11:43:39.492Z,13.35
2018-11-21T11:46:25.152Z,17.50
2018-11-21T11:49:04.091Z,16.62
2018-11-21T11:51:49.854Z,17.10
2018-11-21T11:54:39.583Z,15.65
2018-11-21T11:57:26.214Z,12.68
2018-11-21T12:00:12.891Z,14.43
2018-11-21T12:02:58.396Z,13.68
